createdAt,value
2019-02-21T00:00:57.323Z,23.20
2019-02-21T00:03:26.736Z,24.20
2019-02-21T00:05:56.215Z,24.37
2019-02-21T00:08:25.380Z,23.27
2019-02-21T00:10:54.546Z,23.87
2019-02-21T00:13:23.742Z,23.87
2019-02-21T00:16:33.696Z,23.83
2019-02-21T00:19:02.856Z,22.37
2019-02-21T00:21:31.996Z,22.93
2019-02-21T00:24:01.118Z,23.47
2019-02-21T00:26:30.284Z,24.17
2019-02-21T00:28:59.519Z,23.47
2019-02-21T00:31:28.724Z,23.47
2019-02-21T00:33:57.858Z,23.10
2019-02-21T00:36:27.005Z,23.23
2019-02-21T00:38:56.260Z,21.33
2019-02-21T00:41:25.419Z,22.13
2019-02-21T00:43:54.727Z,22.70
2019-02-21T00:46:24.071Z,21.93
2019-02-21T00:48:53.195Z,22.13
2019-02-21T00:51:22.342Z,22.23
2019-02-21T00:53:51.460Z,22.47
2019-02-21T00:56:20.638Z,22.43
2019-02-21T00:58:51.291Z,21.97
2019-02-21T01:01:20.971Z,20.50
2019-02-21T01:03:50.296Z,21.07
2019-02-21T01:06:19.450Z,20.97
2019-02-21T01:08:48.970Z,22.37
2019-02-21T01:11:18.203Z,21.83
2019-02-21T01:13:47.435Z,21.60
2019-02-21T01:16:16.569Z,21.50
2019-02-21T01:18:45.698Z,22.37
2019-02-21T01:21:14.854Z,21.23
2019-02-21T01:23:44.097Z,21.87
2019-02-21T01:26:13.247Z,21.47
2019-02-21T01:28:42.394Z,20.63
2019-02-21T01:31:11.595Z,21.10
2019-02-21T01:33:40.761Z,21.63
2019-02-21T01:36:09.911Z,21.03
2019-02-21T01:38:39.166Z,20.80
2019-02-21T01:41:08.428Z,20.63
2019-02-21T01:43:37.544Z,21.30
2019-02-21T01:46:06.750Z,21.10
2019-02-21T01:48:35.945Z,20.00
2019-02-21T01:51:05.094Z,19.77
2019-02-21T01:53:34.230Z,19.50
2019-02-21T01:56:03.410Z,20.63
2019-02-21T01:58:32.559Z,20.43
2019-02-21T02:01:08.464Z,19.67
2019-02-21T02:03:32.911Z,19.63
2019-02-21T02:06:02.049Z,19.80
2019-02-21T02:08:31.174Z,19.80
2019-02-21T02:11:00.316Z,19.80
2019-02-21T02:13:29.468Z,19.23
2019-02-21T02:15:58.707Z,19.63
2019-02-21T02:18:27.851Z,19.40
2019-02-21T02:20:57.000Z,18.90
2019-02-21T02:23:26.147Z,19.47
2019-02-21T02:25:55.286Z,19.17
2019-02-21T02:28:24.511Z,18.37
2019-02-21T02:30:53.650Z,19.00
2019-02-21T02:33:22.839Z,19.70
2019-02-21T02:35:52.109Z,20.03
2019-02-21T02:38:21.235Z,19.23
2019-02-21T02:40:50.437Z,19.63
2019-02-21T02:43:19.905Z,20.03
2019-02-21T02:45:49.035Z,20.03
2019-02-21T02:48:18.177Z,19.73
2019-02-21T02:50:47.327Z,19.17
2019-02-21T02:53:16.494Z,20.63
2019-02-21T02:55:45.723Z,20.83
2019-02-21T02:58:14.935Z,20.70
2019-02-21T03:00:44.160Z,19.50
2019-02-21T03:03:13.296Z,20.07
2019-02-21T03:05:42.428Z,19.87
2019-02-21T03:08:11.621Z,19.67
2019-02-21T03:10:40.817Z,20.27
2019-02-21T03:13:09.976Z,20.43
2019-02-21T03:15:39.193Z,20.40
2019-02-21T03:18:08.331Z,20.20
2019-02-21T03:20:37.464Z,20.23
2019-02-21T03:23:06.617Z,21.20
2019-02-21T03:25:35.821Z,21.27
2019-02-21T03:28:05.007Z,20.30
2019-02-21T03:30:34.149Z,21.67
2019-02-21T03:33:03.318Z,20.37
2019-02-21T03:35:32.591Z,18.97
2019-02-21T03:38:01.823Z,21.03
2019-02-21T03:40:31.649Z,20.50
2019-02-21T03:43:00.795Z,19.50
2019-02-21T03:45:30.037Z,20.17
2019-02-21T03:47:59.335Z,20.47
2019-02-21T03:50:28.551Z,21.00
2019-02-21T03:52:57.873Z,21.50
2019-02-21T03:55:27.023Z,21.23
2019-02-21T03:57:56.182Z,20.60
2019-02-21T04:00:25.360Z,21.90
2019-02-21T04:02:54.588Z,20.90
2019-02-21T04:05:23.728Z,20.70
2019-02-21T04:07:52.982Z,20.10
2019-02-21T04:10:22.118Z,22.13
2019-02-21T04:12:51.330Z,21.73
2019-02-21T04:15:20.586Z,21.37
2019-02-21T04:17:49.755Z,21.53
2019-02-21T04:20:19.012Z,21.40
2019-02-21T04:22:48.202Z,21.70
2019-02-21T04:25:17.514Z,21.93
2019-02-21T04:27:47.026Z,22.10
2019-02-21T04:30:16.215Z,21.87
2019-02-21T04:32:45.390Z,21.20
2019-02-21T04:35:14.548Z,21.30
2019-02-21T04:37:43.742Z,20.87
2019-02-21T04:40:12.874Z,21.30
2019-02-21T04:42:42.052Z,21.27
2019-02-21T04:45:11.217Z,21.33
2019-02-21T04:47:40.391Z,22.53
2019-02-21T04:50:09.544Z,21.33
2019-02-21T04:52:38.716Z,22.10
2019-02-21T04:55:07.879Z,22.30
2019-02-21T04:57:37.214Z,20.87
2019-02-21T05:00:08.066Z,21.37
2019-02-21T05:02:37.305Z,22.13
2019-02-21T05:05:06.720Z,21.07
2019-02-21T05:07:35.866Z,21.57
2019-02-21T05:10:05.681Z,21.97
2019-02-21T05:12:34.835Z,20.57
2019-02-21T05:15:04.018Z,21.20
2019-02-21T05:17:33.230Z,22.53
2019-02-21T05:20:02.427Z,20.33
2019-02-21T05:22:31.589Z,20.10
2019-02-21T05:25:00.714Z,21.77
2019-02-21T05:27:36.466Z,21.67
2019-02-21T05:30:07.829Z,19.87
2019-02-21T05:32:59.063Z,21.23
2019-02-21T05:35:42.663Z,22.07
2019-02-21T05:38:21.934Z,22.13
2019-02-21T05:41:05.224Z,21.50
2019-02-21T05:43:52.345Z,22.13
2019-02-21T05:46:46.645Z,21.43
2019-02-21T05:49:31.198Z,22.67
2019-02-21T05:52:22.509Z,21.50
2019-02-21T05:55:22.914Z,21.90
2019-02-21T05:58:12.317Z,22.10
2019-02-21T06:01:05.769Z,21.60
2019-02-21T06:03:42.036Z,21.53
2019-02-21T06:06:28.553Z,21.10
2019-02-21T06:09:25.962Z,22.43
2019-02-21T06:12:14.194Z,22.90
2019-02-21T06:15:05.191Z,21.97
2019-02-21T06:17:52.190Z,21.67
2019-02-21T06:20:52.632Z,21.70
2019-02-21T06:23:30.877Z,22.20
2019-02-21T06:26:09.733Z,21.77
2019-02-21T06:28:49.686Z,20.67
2019-02-21T06:31:21.154Z,21.13
2019-02-21T06:33:50.888Z,21.70
2019-02-21T06:36:20.023Z,21.13
2019-02-21T06:38:49.186Z,21.23
2019-02-21T06:41:18.472Z,22.40
2019-02-21T06:43:47.714Z,24.30
2019-02-21T06:46:16.947Z,25.13
2019-02-21T06:48:46.094Z,24.97
2019-02-21T06:51:15.277Z,25.37
2019-02-21T06:53:44.607Z,24.87
2019-02-21T06:56:13.805Z,24.73
2019-02-21T06:58:43.011Z,24.63
2019-02-21T07:01:12.244Z,21.40
2019-02-21T07:03:41.459Z,21.17
2019-02-21T07:06:10.588Z,21.07
2019-02-21T07:08:40.202Z,20.57
2019-02-21T07:11:09.446Z,20.33
2019-02-21T07:13:38.691Z,20.83
2019-02-21T07:16:07.816Z,20.23
2019-02-21T07:18:37.242Z,20.00
2019-02-21T07:21:06.518Z,19.60
2019-02-21T07:23:43.028Z,19.03
2019-02-21T07:26:09.322Z,19.17
2019-02-21T07:28:38.472Z,19.47
2019-02-21T07:31:07.734Z,20.10
2019-02-21T07:33:36.998Z,19.27
2019-02-21T07:36:06.217Z,18.50
2019-02-21T07:38:35.337Z,18.23
2019-02-21T07:41:04.566Z,18.93
2019-02-21T07:43:34.263Z,17.87
2019-02-21T07:46:03.439Z,18.83
2019-02-21T07:48:32.772Z,18.07
2019-02-21T07:51:02.017Z,17.97
2019-02-21T07:53:32.013Z,17.83
2019-02-21T07:56:01.263Z,19.23
2019-02-21T07:58:30.480Z,17.87
2019-02-21T08:00:59.663Z,18.17
2019-02-21T08:03:35.788Z,17.80
2019-02-21T08:05:59.823Z,17.83
2019-02-21T08:08:28.963Z,17.40
2019-02-21T08:10:58.141Z,17.60
2019-02-21T08:13:27.302Z,18.50
2019-02-21T08:15:56.571Z,18.13
2019-02-21T08:18:25.739Z,17.63
2019-02-21T08:20:54.918Z,18.43
2019-02-21T08:23:24.080Z,18.00
2019-02-21T08:25:53.226Z,16.90
2019-02-21T08:28:22.543Z,15.60
2019-02-21T08:30:51.793Z,16.03
2019-02-21T08:33:38.574Z,15.90
2019-02-21T08:36:07.838Z,16.27
2019-02-21T08:38:37.061Z,15.77
2019-02-21T08:41:06.300Z,16.57
2019-02-21T08:43:37.306Z,15.23
2019-02-21T08:46:06.430Z,16.20
2019-02-21T08:48:35.648Z,15.63
2019-02-21T08:51:06.220Z,16.73
2019-02-21T08:53:35.651Z,16.77
2019-02-21T08:56:04.891Z,17.10
2019-02-21T08:58:34.077Z,16.00
2019-02-21T09:01:03.515Z,17.67
2019-02-21T09:03:32.728Z,18.03
2019-02-21T09:06:01.999Z,18.13
2019-02-21T09:08:34.960Z,17.20
2019-02-21T09:11:04.033Z,17.23
2019-02-21T09:13:32.992Z,18.80
2019-02-21T09:16:02.122Z,18.90
2019-02-21T09:18:31.260Z,18.83
2019-02-21T09:21:00.487Z,19.77
2019-02-21T09:23:29.786Z,19.03
2019-02-21T09:25:58.932Z,20.13
2019-02-21T09:28:28.099Z,19.17
2019-02-21T09:30:58.815Z,19.77
2019-02-21T09:33:28.080Z,19.70
2019-02-21T09:35:57.274Z,19.77
2019-02-21T09:38:26.440Z,20.50
2019-02-21T09:40:55.751Z,20.40
2019-02-21T09:43:25.353Z,19.83
2019-02-21T09:45:54.519Z,19.00
2019-02-21T09:48:23.724Z,18.83
2019-02-21T09:50:53.054Z,17.50
2019-02-21T09:53:22.334Z,17.30
2019-02-21T09:55:51.530Z,18.93
2019-02-21T09:58:20.714Z,18.77
2019-02-21T10:00:51.402Z,18.07
2019-02-21T10:03:20.589Z,18.70
2019-02-21T10:05:49.988Z,17.50
2019-02-21T10:08:21.868Z,18.03
2019-02-21T10:10:50.287Z,16.50
2019-02-21T10:13:19.551Z,17.17
2019-02-21T10:15:48.745Z,17.43
2019-02-21T10:18:18.064Z,17.57
2019-02-21T10:20:47.663Z,17.57
2019-02-21T10:23:16.808Z,17.00
2019-02-21T10:25:46.016Z,17.40
2019-02-21T10:28:15.242Z,16.93
2019-02-21T10:30:44.458Z,17.87
2019-02-21T10:33:13.694Z,17.33
2019-02-21T10:35:42.906Z,17.00
2019-02-21T10:38:12.095Z,17.47
2019-02-21T10:40:41.278Z,15.97
2019-02-21T10:43:10.478Z,16.23
2019-02-21T10:45:47.397Z,15.97
2019-02-21T10:48:10.605Z,16.23
2019-02-21T10:50:39.747Z,16.70
2019-02-21T10:53:08.955Z,15.40
2019-02-21T10:55:57.322Z,16.07
2019-02-21T10:58:26.501Z,15.07
2019-02-21T11:00:55.660Z,15.53
2019-02-21T11:03:24.832Z,14.93
2019-02-21T11:05:54.096Z,13.60
2019-02-21T11:08:23.282Z,13.67
2019-02-21T11:10:53.013Z,14.97
2019-02-21T11:13:22.221Z,14.47
2019-02-21T11:15:51.582Z,14.37
2019-02-21T11:18:20.761Z,14.60
2019-02-21T11:20:49.939Z,14.07
2019-02-21T11:23:19.223Z,14.27
2019-02-21T11:25:48.374Z,14.40
2019-02-21T11:28:17.616Z,15.00
2019-02-21T11:30:47.059Z,15.17
2019-02-21T11:33:16.225Z,15.43
2019-02-21T11:35:45.491Z,13.57
2019-02-21T11:38:14.668Z,14.53
2019-02-21T11:40:43.862Z,13.10
2019-02-21T11:43:13.161Z,14.50
2019-02-21T11:45:53.192Z,14.70
2019-02-21T11:48:13.310Z,14.83
2019-02-21T11:50:42.459Z,14.77
2019-02-21T11:53:11.617Z,12.93
2019-02-21T11:55:40.802Z,12.30
2019-02-21T11:58:09.952Z,12.60
2019-02-21T12:00:39.893Z,12.73
2019-02-21T12:03:09.093Z,12.03
2019-02-21T12:05:38.287Z,11.10
2019-02-21T12:08:07.457Z,11.27
2019-02-21T12:10:36.620Z,12.20
2019-02-21T12:13:05.784Z,13.10
2019-02-21T12:15:35.238Z,11.30
2019-02-21T12:18:04.439Z,12.13
2019-02-21T12:20:33.642Z,11.30
2019-02-21T12:23:02.863Z,13.20
2019-02-21T12:25:32.121Z,11.80
2019-02-21T12:28:01.643Z,11.80
2019-02-21T12:30:33.291Z,11.80
2019-02-21T12:33:01.764Z,11.97
2019-02-21T12:35:30.935Z,12.33
2019-02-21T12:38:00.139Z,12.97
2019-02-21T12:40:29.356Z,11.80
2019-02-21T12:42:58.518Z,12.10
2019-02-21T12:45:30.043Z,12.43
2019-02-21T12:47:58.755Z,11.20
2019-02-21T12:50:28.094Z,11.60
2019-02-21T12:52:57.532Z,11.70
2019-02-21T12:55:31.228Z,11.03
2019-02-21T12:57:57.640Z,11.80
2019-02-21T13:00:27.062Z,11.73
2019-02-21T13:02:56.473Z,11.03
2019-02-21T13:05:25.726Z,10.97
2019-02-21T13:07:54.898Z,11.17
2019-02-21T13:10:24.391Z,11.13
2019-02-21T13:12:53.657Z,10.73
2019-02-21T13:15:22.881Z,10.87
2019-02-21T13:17:52.073Z,11.37
2019-02-21T13:20:21.750Z,11.10
2019-02-21T13:22:50.995Z,10.87
2019-02-21T13:25:20.170Z,10.33
2019-02-21T13:27:49.338Z,11.17
2019-02-21T13:30:18.484Z,10.47
2019-02-21T13:32:47.734Z,11.30
2019-02-21T13:35:16.979Z,10.63
2019-02-21T13:37:46.117Z,10.77
2019-02-21T13:40:15.795Z,10.80
2019-02-21T13:42:44.968Z,10.20
2019-02-21T13:45:17.516Z,11.63
2019-02-21T13:47:46.099Z,10.93
2019-02-21T13:50:16.821Z,11.37
2019-02-21T13:52:45.974Z,10.87
2019-02-21T13:55:15.127Z,11.17
2019-02-21T13:57:44.301Z,10.87
2019-02-21T14:00:17.097Z,10.97
2019-02-21T14:02:46.745Z,11.50
2019-02-21T14:05:16.020Z,12.23
2019-02-21T14:07:45.194Z,22.90
2019-02-21T14:10:14.684Z,15.13
2019-02-21T14:12:43.986Z,11.87
2019-02-21T14:15:15.974Z,11.27
2019-02-21T14:17:46.649Z,11.20
2019-02-21T14:20:16.239Z,10.93
2019-02-21T14:22:45.406Z,11.33
2019-02-21T14:25:14.622Z,10.93
2019-02-21T14:27:43.787Z,10.37
2019-02-21T14:30:16.564Z,11.33
2019-02-21T14:32:45.831Z,11.43
2019-02-21T14:35:15.859Z,11.03
2019-02-21T14:37:45.322Z,11.17
2019-02-21T14:40:14.834Z,10.97
2019-02-21T14:42:43.988Z,11.87
2019-02-21T14:45:16.949Z,11.87
2019-02-21T14:47:46.187Z,12.33
2019-02-21T14:50:16.067Z,12.27
2019-02-21T14:52:45.321Z,12.17
2019-02-21T14:55:15.290Z,13.80
2019-02-21T14:57:44.582Z,12.63
2019-02-21T15:00:20.191Z,11.97
2019-02-21T15:02:49.719Z,13.10
2019-02-21T15:05:20.055Z,13.67
2019-02-21T15:07:49.233Z,13.10
2019-02-21T15:10:18.397Z,12.93
2019-02-21T15:12:47.831Z,12.23
2019-02-21T15:15:18.133Z,12.63
2019-02-21T15:17:47.410Z,12.87
2019-02-21T15:20:17.440Z,12.80
2019-02-21T15:22:46.623Z,12.40
2019-02-21T15:25:16.048Z,12.93
2019-02-21T15:27:45.407Z,12.53
2019-02-21T15:30:17.010Z,12.33
2019-02-21T15:32:46.250Z,11.93
2019-02-21T15:35:15.417Z,10.83
2019-02-21T15:37:45.204Z,11.07
2019-02-21T15:40:14.825Z,11.53
2019-02-21T15:42:44.065Z,11.63
2019-02-21T15:45:22.947Z,12.07
2019-02-21T15:47:46.744Z,11.73
2019-02-21T15:50:15.988Z,11.80
2019-02-21T15:52:46.632Z,11.73
2019-02-21T15:55:16.545Z,11.77
2019-02-21T15:57:46.203Z,12.20
2019-02-21T16:00:17.808Z,12.30
2019-02-21T16:02:47.046Z,12.60
2019-02-21T16:05:16.547Z,12.33
2019-02-21T16:07:45.889Z,12.20
2019-02-21T16:10:17.850Z,12.40
2019-02-21T16:12:47.517Z,12.47
2019-02-21T16:15:17.601Z,12.47
2019-02-21T16:17:46.754Z,12.60
2019-02-21T16:20:16.545Z,13.60
2019-02-21T16:22:49.297Z,13.63
2019-02-21T16:25:20.159Z,13.50
2019-02-21T16:27:49.328Z,13.80
2019-02-21T16:30:18.612Z,13.33
2019-02-21T16:32:47.964Z,13.87
2019-02-21T16:35:17.201Z,13.97
2019-02-21T16:37:46.501Z,13.17
2019-02-21T16:40:15.805Z,13.10
2019-02-21T16:42:44.973Z,12.93
2019-02-21T16:45:15.129Z,13.17
2019-02-21T16:47:44.355Z,13.47
2019-02-21T16:50:14.094Z,14.80
2019-02-21T16:52:43.618Z,13.70
2019-02-21T16:55:15.323Z,14.77
2019-02-21T16:57:44.497Z,15.00
2019-02-21T17:00:15.441Z,14.80
2019-02-21T17:02:44.731Z,14.73
2019-02-21T17:05:14.659Z,15.53
2019-02-21T17:07:43.830Z,15.17
2019-02-21T17:10:14.000Z,15.37
2019-02-21T17:12:43.171Z,16.23
2019-02-21T17:15:13.219Z,16.27
2019-02-21T17:17:42.397Z,16.73
2019-02-21T17:20:13.726Z,16.97
2019-02-21T17:22:42.965Z,15.97
2019-02-21T17:25:13.740Z,17.50
2019-02-21T17:27:43.088Z,19.53
2019-02-21T17:30:14.726Z,19.67
2019-02-21T17:32:43.971Z,19.07
2019-02-21T17:35:13.147Z,19.07
2019-02-21T17:37:42.681Z,17.00
2019-02-21T17:40:14.592Z,17.83
2019-02-21T17:42:43.773Z,18.03
2019-02-21T17:45:13.642Z,18.27
2019-02-21T17:47:42.880Z,19.03
2019-02-21T17:50:13.563Z,18.50
2019-02-21T17:52:42.807Z,19.10
2019-02-21T17:55:12.161Z,18.87
2019-02-21T17:57:41.300Z,18.63
2019-02-21T18:00:17.112Z,19.17
2019-02-21T18:02:46.632Z,19.20
2019-02-21T18:05:15.816Z,20.40
2019-02-21T18:07:44.951Z,20.00
2019-02-21T18:10:14.525Z,21.03
2019-02-21T18:12:43.695Z,20.63
2019-02-21T18:15:13.700Z,20.60
2019-02-21T18:17:42.864Z,18.93
2019-02-21T18:20:12.765Z,19.17
2019-02-21T18:22:42.306Z,20.10
2019-02-21T18:25:15.007Z,20.23
2019-02-21T18:27:44.200Z,20.27
2019-02-21T18:30:14.865Z,20.63
2019-02-21T18:32:44.199Z,21.07
2019-02-21T18:35:13.818Z,22.03
2019-02-21T18:37:47.304Z,21.07
2019-02-21T18:40:18.474Z,22.43
2019-02-21T18:42:46.475Z,22.17
2019-02-21T18:45:15.842Z,22.80
2019-02-21T18:47:45.220Z,22.30
2019-02-21T18:50:18.131Z,22.40
2019-02-21T18:52:48.460Z,22.83
2019-02-21T18:55:17.652Z,23.67
2019-02-21T18:57:46.904Z,24.03
2019-02-21T19:00:18.860Z,23.93
2019-02-21T19:02:48.082Z,23.90
2019-02-21T19:05:17.272Z,23.47
2019-02-21T19:07:46.514Z,23.57
2019-02-21T19:10:16.831Z,22.87
2019-02-21T19:12:45.993Z,21.43
2019-02-21T19:15:16.659Z,22.20
2019-02-21T19:17:45.934Z,20.70
2019-02-21T19:20:15.635Z,20.53
2019-02-21T19:22:44.899Z,21.77
2019-02-21T19:25:14.689Z,21.40
2019-02-21T19:27:43.975Z,21.50
2019-02-21T19:30:20.196Z,21.47
2019-02-21T19:32:49.451Z,21.17
2019-02-21T19:35:19.061Z,21.80
2019-02-21T19:37:48.460Z,20.07
2019-02-21T19:40:17.737Z,21.10
2019-02-21T19:42:46.919Z,20.90
2019-02-21T19:45:16.620Z,20.50
2019-02-21T19:47:45.842Z,21.10
2019-02-21T19:50:15.515Z,21.77
2019-02-21T19:52:44.668Z,22.33
2019-02-21T19:55:15.114Z,22.00
2019-02-21T19:57:44.407Z,25.83
2019-02-21T20:00:17.741Z,26.23
2019-02-21T20:02:46.902Z,24.47
2019-02-21T20:05:16.529Z,22.40
2019-02-21T20:07:45.971Z,22.10
2019-02-21T20:10:15.837Z,21.73
2019-02-21T20:12:45.079Z,20.80
2019-02-21T20:15:14.975Z,20.63
2019-02-21T20:17:44.497Z,21.37
2019-02-21T20:20:15.432Z,21.83
2019-02-21T20:22:44.699Z,21.70
2019-02-21T20:25:14.044Z,22.33
2019-02-21T20:27:43.528Z,22.13
2019-02-21T20:30:14.808Z,22.07
2019-02-21T20:32:44.086Z,21.90
2019-02-21T20:35:13.347Z,21.40
2019-02-21T20:37:42.642Z,22.57
2019-02-21T20:40:12.201Z,21.57
2019-02-21T20:42:41.489Z,21.83
2019-02-21T20:45:10.968Z,22.77
2019-02-21T20:47:40.283Z,22.00
2019-02-21T20:50:10.382Z,22.10
2019-02-21T20:52:39.585Z,22.50
2019-02-21T20:55:09.697Z,21.67
2019-02-21T20:57:38.924Z,22.37
2019-02-21T21:00:10.984Z,21.33
2019-02-21T21:02:40.144Z,22.20
2019-02-21T21:05:09.555Z,21.90
2019-02-21T21:07:39.064Z,22.53
2019-02-21T21:10:10.635Z,20.97
2019-02-21T21:12:40.344Z,22.10
2019-02-21T21:15:11.037Z,22.60
2019-02-21T21:17:40.863Z,21.37
2019-02-21T21:20:16.563Z,21.87
2019-02-21T21:22:42.409Z,22.27
2019-02-21T21:25:15.108Z,21.10
2019-02-21T21:27:44.352Z,22.60
2019-02-21T21:30:14.675Z,21.57
2019-02-21T21:32:44.115Z,22.60
2019-02-21T21:35:13.821Z,24.13
2019-02-21T21:37:42.995Z,22.77
2019-02-21T21:40:13.575Z,22.37
2019-02-21T21:42:43.014Z,21.70
2019-02-21T21:45:14.703Z,22.50
2019-02-21T21:47:44.043Z,22.03
2019-02-21T21:50:15.046Z,23.80
2019-02-21T21:52:44.228Z,25.43
2019-02-21T21:55:13.365Z,24.80
2019-02-21T21:57:42.725Z,23.53
2019-02-21T22:00:18.013Z,22.63
2019-02-21T22:02:47.357Z,21.07
2019-02-21T22:05:16.505Z,22.23
2019-02-21T22:07:45.719Z,22.70
2019-02-21T22:10:15.565Z,22.70
2019-02-21T22:12:44.816Z,23.37
2019-02-21T22:15:14.702Z,21.77
2019-02-21T22:17:43.863Z,21.83
2019-02-21T22:20:13.075Z,22.23
2019-02-21T22:22:42.315Z,23.00
2019-02-21T22:25:12.015Z,22.17
2019-02-21T22:27:41.674Z,22.20
2019-02-21T22:30:14.169Z,22.57
